Time;durP1;ratioP1;P1;durP2;ratioP2;P2;SDS_P1;SDS_P2;PMS_P1;PMS_P2;Temp;Humidity;BMP_temperature;BMP_pressure;BME280_temperature;BME280_humidity;BME280_pressure;Samples;Min_cycle;Max_cycle;Signal;HPM_P1;HPM_P2
2022/04/20 00:00:57;;;;;;;0.77;0.40;;;20.10;57.00;;;;;;5053089;28;20184;-74
2022/04/20 00:03:24;;;;;;;0.40;0.40;;;20.10;57.20;;;;;;5054075;28;20200;-77
2022/04/20 00:05:52;;;;;;;3.00;0.60;;;20.20;57.50;;;;;;5050394;28;20627;-75
2022/04/20 00:08:19;;;;;;;0.83;0.60;;;20.20;56.30;;;;;;5053978;28;20183;-75
2022/04/20 00:10:46;;;;;;;0.50;0.40;;;20.30;56.40;;;;;;5051184;28;20623;-74
2022/04/20 00:13:14;;;;;;;0.40;0.40;;;20.40;57.10;;;;;;5053851;28;20176;-75
2022/04/20 00:15:41;;;;;;;0.97;0.60;;;20.50;56.10;;;;;;5054600;28;20176;-77
2022/04/20 00:18:08;;;;;;;0.80;0.50;;;20.50;55.40;;;;;;5052904;28;20223;-73
2022/04/20 00:20:36;;;;;;;2.30;0.47;;;20.40;55.40;;;;;;5053911;28;20597;-74
2022/04/20 00:23:03;;;;;;;0.67;0.47;;;20.60;55.60;;;;;;5051918;28;20184;-74
2022/04/20 00:25:30;;;;;;;1.70;0.50;;;20.60;54.90;;;;;;5049978;28;20183;-73
2022/04/20 00:27:58;;;;;;;3.57;1.50;;;20.70;55.50;;;;;;5031638;28;20177;-75
2022/04/20 00:30:25;;;;;;;0.40;0.40;;;20.90;55.80;;;;;;5051508;28;20206;-73
2022/04/20 00:32:52;;;;;;;1.03;0.60;;;21.00;54.30;;;;;;5053835;28;20650;-73
2022/04/20 00:35:20;;;;;;;0.50;0.40;;;21.00;54.70;;;;;;5047899;28;20176;-73
2022/04/20 00:37:48;;;;;;;0.40;0.40;;;21.20;54.30;;;;;;5051670;28;20288;-76
2022/04/20 00:40:15;;;;;;;0.57;0.50;;;21.20;53.80;;;;;;5053214;28;20196;-80
2022/04/20 00:42:43;;;;;;;0.80;0.37;;;21.10;54.00;;;;;;5044934;28;20263;-72
2022/04/20 00:45:12;;;;;;;0.37;0.30;;;21.10;53.50;;;;;;5054574;28;20173;-77
2022/04/20 00:47:43;;;;;;;0.50;0.50;;;21.20;54.10;;;;;;5045999;28;20260;-79
2022/04/20 00:50:12;;;;;;;0.87;0.50;;;21.20;53.90;;;;;;5037687;28;20184;-73
2022/04/20 00:52:40;;;;;;;3.40;0.70;;;21.30;53.30;;;;;;5034103;28;20205;-73
2022/04/20 00:55:08;;;;;;;0.67;0.50;;;21.40;53.20;;;;;;5034138;28;20192;-81
2022/04/20 00:57:36;;;;;;;1.23;0.33;;;21.60;53.00;;;;;;5037085;28;20274;-71
2022/04/20 01:00:05;;;;;;;0.83;0.40;;;21.50;52.50;;;;;;5051634;28;20688;-76
2022/04/20 01:02:32;;;;;;;1.37;0.63;;;21.70;52.40;;;;;;5056001;28;20638;-75
2022/04/20 01:04:59;;;;;;;1.27;0.50;;;21.90;52.10;;;;;;5053433;28;20539;-74
2022/04/20 01:07:34;;;;;;;0.60;0.50;;;22.00;51.90;;;;;;5051206;28;20666;-78
2022/04/20 01:10:02;;;;;;;0.57;0.50;;;22.30;52.10;;;;;;5052762;28;20179;-76
2022/04/20 01:12:29;;;;;;;2.00;0.40;;;22.50;51.10;;;;;;5053270;28;20190;-76
2022/04/20 01:14:57;;;;;;;0.60;0.43;;;22.60;50.70;;;;;;5053189;28;20325;-76
2022/04/20 01:17:24;;;;;;;1.07;0.63;;;22.40;50.80;;;;;;5053484;28;20646;-81
2022/04/20 01:19:52;;;;;;;0.50;0.40;;;22.40;50.30;;;;;;5052975;28;20228;-77
2022/04/20 01:22:19;;;;;;;1.73;0.50;;;22.30;50.10;;;;;;5043930;28;20231;-77
2022/04/20 01:24:46;;;;;;;0.40;0.40;;;22.40;50.80;;;;;;5048115;28;20284;-74
2022/04/20 01:27:14;;;;;;;0.50;0.40;;;22.60;50.50;;;;;;5052445;28;20192;-74
2022/04/20 01:29:42;;;;;;;0.33;0.33;;;22.80;49.50;;;;;;5053738;28;20580;-76
2022/04/20 01:32:09;;;;;;;0.40;0.40;;;22.90;49.50;;;;;;5050966;28;20187;-75
2022/04/20 01:34:37;;;;;;;0.93;0.57;;;23.00;48.50;;;;;;5046125;28;20670;-79
2022/04/20 01:37:04;;;;;;;1.23;0.60;;;23.10;48.70;;;;;;5048031;28;20224;-78
2022/04/20 01:39:32;;;;;;;0.60;0.50;;;23.30;49.00;;;;;;5042434;28;20183;-76
2022/04/20 01:41:59;;;;;;;1.27;0.43;;;23.40;48.90;;;;;;5049470;28;20228;-77
2022/04/20 01:44:27;;;;;;;0.40;0.40;;;23.30;48.30;;;;;;5045520;28;20180;-76
2022/04/20 01:46:54;;;;;;;0.30;0.30;;;23.30;49.60;;;;;;5049591;28;20271;-78
2022/04/20 01:49:21;;;;;;;0.37;0.37;;;23.30;48.30;;;;;;5047691;28;20200;-76
2022/04/20 01:51:52;;;;;;;0.43;0.40;;;23.30;48.30;;;;;;5046748;28;20553;-77
2022/04/20 01:54:20;;;;;;;0.37;0.37;;;23.40;48.10;;;;;;5051943;28;20548;-80
2022/04/20 01:56:52;;;;;;;1.73;0.40;;;23.40;47.40;;;;;;5047671;28;20670;-79
2022/04/20 01:59:19;;;;;;;0.70;0.47;;;23.50;47.10;;;;;;5046079;28;20176;-80
2022/04/20 02:04:32;;;;;;;0.30;0.30;;;23.60;47.30;;;;;;5049933;28;20194;-78
2022/04/20 02:06:59;;;;;;;0.87;0.50;;;23.90;45.90;;;;;;5051113;28;20216;-79
2022/04/20 02:09:27;;;;;;;0.60;0.40;;;24.30;46.80;;;;;;5050245;28;20246;-81
2022/04/20 02:11:54;;;;;;;1.80;0.40;;;24.20;45.20;;;;;;5052608;28;20183;-80
2022/04/20 02:14:22;;;;;;;0.70;0.30;;;24.30;45.60;;;;;;5052905;28;20236;-77
2022/04/20 02:16:49;;;;;;;0.50;0.40;;;24.60;44.60;;;;;;5052653;28;20200;-82
2022/04/20 02:19:16;;;;;;;0.50;0.40;;;24.50;44.60;;;;;;5052633;28;20226;-76
2022/04/20 02:21:44;;;;;;;0.30;0.30;;;24.20;44.40;;;;;;5052532;28;20209;-77
2022/04/20 02:24:13;;;;;;;2.10;0.40;;;24.30;44.50;;;;;;5052603;28;20264;-82
2022/04/20 02:26:41;;;;;;;0.30;0.30;;;24.10;45.20;;;;;;5052783;28;20255;-77
2022/04/20 02:29:11;;;;;;;0.50;0.40;;;24.30;44.50;;;;;;5052825;28;20179;-78
2022/04/20 02:31:39;;;;;;;0.53;0.40;;;24.70;44.60;;;;;;5053179;28;20171;-80
2022/04/20 02:34:06;;;;;;;0.20;0.20;;;24.20;44.30;;;;;;5072065;28;20167;-74
2022/04/20 02:36:33;;;;;;;0.63;0.30;;;24.20;44.80;;;;;;5072577;28;20246;-76
2022/04/20 02:39:03;;;;;;;0.40;0.40;;;24.70;45.30;;;;;;5072733;28;20164;-78
2022/04/20 02:41:36;;;;;;;0.63;0.37;;;24.90;43.10;;;;;;5054657;28;20230;-79
2022/04/20 02:44:04;;;;;;;0.30;0.30;;;24.30;44.20;;;;;;5052440;28;20210;-76
2022/04/20 02:46:32;;;;;;;0.63;0.40;;;24.60;44.00;;;;;;5051960;28;20171;-80
2022/04/20 02:49:00;;;;;;;0.63;0.30;;;25.20;44.50;;;;;;5051073;28;20538;-84
2022/04/20 02:51:28;;;;;;;0.30;0.30;;;25.00;43.20;;;;;;5052443;28;20627;-77
2022/04/20 02:53:55;;;;;;;0.57;0.40;;;24.70;43.50;;;;;;5052383;28;20176;-86
2022/04/20 02:56:22;;;;;;;0.30;0.30;;;24.90;43.20;;;;;;5052445;28;20198;-75
2022/04/20 02:58:50;;;;;;;2.73;0.40;;;25.00;43.00;;;;;;5052233;28;20181;-77
2022/04/20 03:01:17;;;;;;;0.30;0.30;;;24.80;43.40;;;;;;5052308;28;20237;-75
2022/04/20 03:03:44;;;;;;;0.30;0.30;;;24.90;43.90;;;;;;5070262;28;20184;-77
2022/04/20 03:06:12;;;;;;;1.50;0.40;;;25.40;43.00;;;;;;5072479;28;20687;-77
2022/04/20 03:08:41;;;;;;;0.40;0.37;;;25.30;42.90;;;;;;5075629;28;20175;-75
2022/04/20 03:11:08;;;;;;;1.27;0.37;;;25.40;42.30;;;;;;5061409;28;20222;-75
2022/04/20 03:13:36;;;;;;;0.70;0.30;;;25.30;43.10;;;;;;5056306;28;20176;-75
2022/04/20 03:16:03;;;;;;;0.30;0.30;;;24.50;43.50;;;;;;5056184;28;20188;-78
2022/04/20 03:18:32;;;;;;;2.27;0.57;;;24.20;45.30;;;;;;5054511;28;20241;-77
2022/04/20 03:21:01;;;;;;;0.57;0.30;;;24.10;44.50;;;;;;5054960;28;20599;-77
2022/04/20 03:23:30;;;;;;;0.50;0.40;;;24.80;42.80;;;;;;5056238;28;20176;-78
2022/04/20 03:25:57;;;;;;;0.37;0.30;;;24.80;41.70;;;;;;5054606;28;20184;-73
2022/04/20 03:28:25;;;;;;;0.53;0.40;;;24.10;44.30;;;;;;5055839;28;20172;-80
2022/04/20 03:30:52;;;;;;;0.40;0.40;;;23.70;45.20;;;;;;5050573;28;20598;-81
2022/04/20 03:33:20;;;;;;;0.43;0.30;;;23.90;45.70;;;;;;5058397;28;20187;-79
2022/04/20 03:35:47;;;;;;;0.30;0.30;;;24.60;43.90;;;;;;5051567;28;20215;-78
2022/04/20 03:38:15;;;;;;;0.27;0.27;;;25.20;42.70;;;;;;5054491;28;20224;-75
2022/04/20 03:40:43;;;;;;;0.40;0.30;;;25.80;42.00;;;;;;5050747;28;20325;-76
2022/04/20 03:43:10;;;;;;;0.30;0.30;;;26.20;41.00;;;;;;5053998;28;20708;-77
2022/04/20 03:45:38;;;;;;;0.87;0.27;;;26.10;40.40;;;;;;5055405;28;20179;-75
2022/04/20 03:48:05;;;;;;;0.50;0.40;;;25.30;41.90;;;;;;5053780;28;20208;-78
2022/04/20 03:50:33;;;;;;;0.20;0.20;;;25.90;42.30;;;;;;5051857;28;20176;-83
2022/04/20 03:53:00;;;;;;;0.30;0.30;;;26.40;40.10;;;;;;5054993;28;20198;-75
2022/04/20 03:55:27;;;;;;;0.23;0.20;;;26.40;39.10;;;;;;5053211;28;20631;-77
2022/04/20 03:57:55;;;;;;;0.30;0.20;;;25.00;42.40;;;;;;5042809;28;20216;-79
2022/04/20 04:00:24;;;;;;;0.20;0.20;;;24.30;44.00;;;;;;5054057;28;20182;-75
2022/04/20 04:02:51;;;;;;;1.60;0.70;;;24.70;44.50;;;;;;5046586;28;20667;-74
2022/04/20 04:05:18;;;;;;;1.07;0.40;;;25.90;41.20;;;;;;5035744;28;20173;-74
2022/04/20 04:07:46;;;;;;;1.00;0.37;;;26.30;39.40;;;;;;5052396;28;20192;-74
2022/04/20 04:10:14;;;;;;;0.30;0.30;;;26.90;38.90;;;;;;5055119;28;20655;-76
2022/04/20 04:12:41;;;;;;;0.40;0.30;;;26.80;37.30;;;;;;5055231;28;20266;-73
2022/04/20 04:15:09;;;;;;;1.20;0.30;;;26.70;36.30;;;;;;5053772;28;20638;-78
2022/04/20 04:17:36;;;;;;;0.23;0.23;;;26.70;35.40;;;;;;5053603;28;20223;-75
2022/04/20 04:20:05;;;;;;;0.20;0.20;;;26.50;36.10;;;;;;5034533;28;20173;-76
2022/04/20 04:22:32;;;;;;;0.97;0.27;;;26.60;35.80;;;;;;5043122;28;20188;-74
2022/04/20 04:24:59;;;;;;;0.50;0.40;;;27.20;34.60;;;;;;5044392;28;20175;-76
2022/04/20 04:27:27;;;;;;;0.50;0.43;;;27.60;34.50;;;;;;5048753;28;20187;-78
2022/04/20 04:29:54;;;;;;;0.30;0.30;;;27.60;34.60;;;;;;5053931;28;20212;-78
2022/04/20 04:32:21;;;;;;;4.63;0.40;;;27.30;35.00;;;;;;5054901;28;20184;-77
2022/04/20 04:34:49;;;;;;;0.37;0.30;;;26.80;36.10;;;;;;5054137;28;20635;-75
2022/04/20 04:37:16;;;;;;;0.20;0.20;;;27.20;35.90;;;;;;5051893;28;20223;-75
2022/04/20 04:39:44;;;;;;;0.30;0.30;;;27.40;35.30;;;;;;5049621;28;20283;-82
2022/04/20 04:42:11;;;;;;;0.70;0.40;;;27.00;35.80;;;;;;5041724;28;20232;-76
2022/04/20 04:44:38;;;;;;;0.20;0.20;;;27.30;35.20;;;;;;5040950;28;20172;-78
2022/04/20 04:49:52;;;;;;;0.93;0.30;;;28.10;34.00;;;;;;5053430;28;20229;-78
2022/04/20 04:52:19;;;;;;;0.20;0.20;;;27.70;34.40;;;;;;5053918;28;20669;-81
2022/04/20 04:54:46;;;;;;;0.97;0.30;;;27.80;34.30;;;;;;5053700;28;20631;-78
2022/04/20 04:57:14;;;;;;;0.70;0.30;;;28.20;33.80;;;;;;5053879;28;20547;-82
2022/04/20 04:59:43;;;;;;;0.30;0.30;;;28.50;33.00;;;;;;5053710;28;20187;-79
2022/04/20 05:02:11;;;;;;;0.63;0.40;;;29.10;31.20;;;;;;5058367;28;20187;-85
2022/04/20 05:04:40;;;;;;;0.40;0.40;;;28.90;31.60;;;;;;5074188;28;20182;-82
2022/04/20 05:07:09;;;;;;;0.50;0.20;;;28.20;31.90;;;;;;5057680;28;20496;-86
2022/04/20 05:09:36;;;;;;;0.33;0.33;;;28.30;30.90;;;;;;5051934;28;20191;-80
2022/04/20 05:12:03;;;;;;;0.40;0.30;;;27.90;31.10;;;;;;5039587;28;20207;-75
2022/04/20 05:14:31;;;;;;;0.53;0.37;;;27.80;31.70;;;;;;5052055;28;20180;-77
2022/04/20 05:16:59;;;;;;;0.43;0.30;;;28.50;31.20;;;;;;5052292;28;20261;-76
2022/04/20 05:19:29;;;;;;;0.30;0.30;;;29.10;30.30;;;;;;5051204;28;20545;-73
2022/04/20 05:21:56;;;;;;;0.20;0.20;;;28.80;28.60;;;;;;5053701;28;20176;-78
2022/04/20 05:24:24;;;;;;;0.30;0.30;;;28.30;30.00;;;;;;5053535;28;20175;-83
2022/04/20 05:26:52;;;;;;;0.30;0.30;;;27.50;30.10;;;;;;5052509;28;20187;-81
2022/04/20 05:29:19;;;;;;;1.10;0.40;;;27.70;30.20;;;;;;5050771;28;20184;-83
2022/04/20 05:31:51;;;;;;;0.30;0.30;;;28.30;30.00;;;;;;5054477;28;20184;-77
2022/04/20 05:34:19;;;;;;;1.73;0.30;;;28.30;30.00;;;;;;5054186;28;20187;-76
2022/04/20 05:42:18;;;;;;;0.30;0.30;;;28.00;30.10;;;;;;5049731;28;20239;-76
2022/04/20 05:44:49;;;;;;;0.30;0.30;;;28.70;30.30;;;;;;5053436;28;20279;-76
2022/04/20 05:47:16;;;;;;;0.30;0.30;;;28.90;29.60;;;;;;5051931;28;20184;-77
2022/04/20 05:49:43;;;;;;;0.30;0.30;;;28.70;29.60;;;;;;5052614;28;20259;-74
2022/04/20 05:52:11;;;;;;;0.60;0.40;;;28.60;29.90;;;;;;5046791;28;20185;-76
2022/04/20 05:54:38;;;;;;;0.20;0.20;;;28.60;29.60;;;;;;5047633;28;20176;-75
2022/04/20 05:57:06;;;;;;;0.87;0.30;;;28.80;29.80;;;;;;5052397;28;20722;-77
2022/04/20 05:59:33;;;;;;;0.93;0.30;;;29.20;29.80;;;;;;5051192;28;20673;-76
2022/04/20 06:02:00;;;;;;;0.53;0.40;;;29.80;29.40;;;;;;5056472;28;20534;-79
2022/04/20 06:04:29;;;;;;;0.20;0.20;;;29.90;29.30;;;;;;5066123;28;20552;-78
2022/04/20 06:06:56;;;;;;;0.90;0.40;;;30.00;28.30;;;;;;5052730;28;20678;-76
2022/04/20 06:09:24;;;;;;;1.80;0.50;;;29.80;28.40;;;;;;5052092;28;20286;-78
2022/04/20 06:11:53;;;;;;;0.30;0.30;;;29.90;28.20;;;;;;5051474;28;20180;-76
2022/04/20 06:14:20;;;;;;;0.82;0.45;;;29.80;28.80;;;;;;5053682;28;20191;-77
2022/04/20 06:16:48;;;;;;;0.30;0.30;;;30.10;27.90;;;;;;5048281;28;20208;-75
2022/04/20 06:19:15;;;;;;;0.40;0.40;;;29.90;28.60;;;;;;5050827;28;20184;-76
2022/04/20 06:21:43;;;;;;;0.80;0.40;;;29.70;29.00;;;;;;5052335;28;20179;-75
2022/04/20 06:24:10;;;;;;;0.40;0.40;;;29.30;30.00;;;;;;5051313;28;20700;-76
2022/04/20 06:26:37;;;;;;;0.73;0.40;;;29.20;29.80;;;;;;5051658;28;20176;-77
2022/04/20 06:29:04;;;;;;;2.47;0.40;;;28.10;31.70;;;;;;5044500;28;20183;-75
2022/04/20 06:31:32;;;;;;;1.10;0.40;;;27.20;32.90;;;;;;5051265;28;20241;-75
2022/04/20 06:33:59;;;;;;;0.50;0.50;;;27.00;33.60;;;;;;5048069;28;20938;-75
2022/04/20 06:36:27;;;;;;;0.80;0.40;;;27.30;33.90;;;;;;5052140;28;20283;-76
2022/04/20 06:38:55;;;;;;;0.63;0.40;;;26.50;34.10;;;;;;5050978;28;20188;-77
2022/04/20 06:41:23;;;;;;;0.40;0.30;;;25.80;34.90;;;;;;5053158;28;20220;-78
2022/04/20 06:43:50;;;;;;;0.70;0.50;;;25.30;36.40;;;;;;5056007;28;20191;-75
2022/04/20 06:46:18;;;;;;;0.30;0.30;;;24.80;37.10;;;;;;5046453;28;20234;-76
2022/04/20 06:48:45;;;;;;;0.67;0.40;;;24.50;37.10;;;;;;5051157;28;20642;-78
2022/04/20 06:51:12;;;;;;;0.80;0.47;;;24.30;37.90;;;;;;5051785;28;20206;-75
2022/04/20 06:59:10;;;;;;;0.77;0.40;;;24.10;39.30;;;;;;5052535;28;20250;-81
2022/04/20 07:01:37;;;;;;;0.50;0.40;;;23.80;39.40;;;;;;5054574;28;20180;-77
2022/04/20 07:04:05;;;;;;;0.50;0.40;;;23.60;39.90;;;;;;5056662;28;20604;-76
2022/04/20 07:06:33;;;;;;;0.93;0.60;;;23.50;40.40;;;;;;5047182;28;20279;-77
2022/04/20 07:09:01;;;;;;;0.60;0.50;;;23.40;40.70;;;;;;5054924;28;20188;-78
2022/04/20 07:11:28;;;;;;;0.87;0.40;;;23.30;40.70;;;;;;5083975;28;20620;-76
2022/04/20 07:13:56;;;;;;;1.20;0.73;;;23.20;40.90;;;;;;5053972;28;20184;-76
2022/04/20 07:16:24;;;;;;;0.70;0.43;;;23.10;41.20;;;;;;5052574;28;20184;-76
2022/04/20 07:18:51;;;;;;;1.40;0.50;;;23.00;40.50;;;;;;5051613;28;20718;-75
2022/04/20 07:21:19;;;;;;;0.60;0.50;;;22.90;40.70;;;;;;5055019;28;20180;-76
2022/04/20 07:23:46;;;;;;;1.13;0.70;;;22.80;41.60;;;;;;5053569;28;20184;-77
2022/04/20 07:26:13;;;;;;;0.90;0.67;;;22.80;40.30;;;;;;5052442;28;20211;-77
2022/04/20 07:28:41;;;;;;;0.93;0.60;;;22.70;40.90;;;;;;5054084;28;20172;-75
2022/04/20 07:31:08;;;;;;;0.80;0.70;;;22.60;40.80;;;;;;5054055;28;20183;-75
2022/04/20 07:33:36;;;;;;;1.13;0.87;;;22.40;40.40;;;;;;5053441;28;20184;-75
2022/04/20 07:36:03;;;;;;;0.83;0.80;;;22.30;40.80;;;;;;5048294;28;20237;-75
2022/04/20 07:38:30;;;;;;;1.60;0.93;;;22.30;41.00;;;;;;5054313;28;20250;-75
2022/04/20 07:40:58;;;;;;;0.70;0.60;;;22.20;41.00;;;;;;5053470;28;20301;-76
2022/04/20 07:43:25;;;;;;;2.10;1.17;;;22.10;41.60;;;;;;5053797;28;20199;-74
2022/04/20 07:45:52;;;;;;;3.37;0.97;;;22.00;42.30;;;;;;5052560;28;20207;-74
2022/04/20 07:48:20;;;;;;;4.03;1.30;;;21.90;42.50;;;;;;5054552;28;20188;-74
2022/04/20 07:50:47;;;;;;;2.73;1.30;;;21.90;42.80;;;;;;5053177;28;20267;-74
2022/04/20 07:53:14;;;;;;;3.00;1.00;;;21.80;43.40;;;;;;5050620;28;20192;-73
2022/04/20 07:55:46;;;;;;;2.63;1.10;;;21.80;43.20;;;;;;5050374;28;21539;-74
2022/04/20 07:58:14;;;;;;;3.57;1.30;;;21.70;44.30;;;;;;5051027;28;20215;-74
2022/04/20 08:00:41;;;;;;;1.57;1.00;;;21.50;45.70;;;;;;5054520;28;20259;-73
2022/04/20 08:03:13;;;;;;;2.43;0.90;;;21.40;46.20;;;;;;5051037;28;20191;-73
2022/04/20 08:05:41;;;;;;;2.50;1.07;;;21.30;47.00;;;;;;5051073;28;20180;-74
2022/04/20 08:08:10;;;;;;;1.67;0.90;;;21.10;47.60;;;;;;5045775;28;20618;-74
2022/04/20 08:10:38;;;;;;;1.57;1.00;;;21.00;48.20;;;;;;5045543;28;20610;-74
2022/04/20 08:15:51;;;;;;;1.53;1.20;;;20.70;47.80;;;;;;5054831;28;20182;-73
2022/04/20 08:18:19;;;;;;;2.87;1.60;;;20.70;48.70;;;;;;5040377;28;20726;-73
2022/04/20 08:20:47;;;;;;;4.33;2.80;;;20.60;49.20;;;;;;5034866;28;20187;-74
2022/04/20 08:23:15;;;;;;;4.23;2.20;;;20.50;50.80;;;;;;5052220;28;20258;-74
2022/04/20 08:25:43;;;;;;;5.90;2.20;;;20.40;50.70;;;;;;5054485;28;20179;-73
2022/04/20 08:28:11;;;;;;;3.90;2.00;;;20.30;50.80;;;;;;5052830;28;20192;-73
2022/04/20 08:30:39;;;;;;;2.63;1.90;;;20.30;51.50;;;;;;5054386;28;20267;-74
2022/04/20 08:33:08;;;;;;;2.60;1.70;;;20.20;51.00;;;;;;5063287;28;20582;-74
2022/04/20 08:35:36;;;;;;;3.60;1.77;;;20.20;50.60;;;;;;5053413;28;20654;-74
2022/04/20 08:38:05;;;;;;;6.47;2.10;;;20.10;50.00;;;;;;5062077;28;20222;-74
2022/04/20 08:40:34;;;;;;;6.53;3.07;;;20.10;50.50;;;;;;5060058;28;20195;-74
2022/04/20 08:43:05;;;;;;;5.20;3.10;;;20.10;51.50;;;;;;5053398;28;20224;-74
2022/04/20 08:45:37;;;;;;;3.93;2.97;;;20.10;50.60;;;;;;5045939;28;20192;-73
2022/04/20 08:48:06;;;;;;;3.53;2.20;;;20.10;49.70;;;;;;5054615;28;20249;-74
2022/04/20 08:50:33;;;;;;;2.60;2.03;;;20.10;49.50;;;;;;5053081;28;20188;-73
2022/04/20 08:53:02;;;;;;;3.93;2.30;;;20.10;48.40;;;;;;5053990;28;20579;-74
2022/04/20 08:55:29;;;;;;;4.93;2.47;;;20.00;47.90;;;;;;5052855;28;20187;-74
2022/04/20 08:57:57;;;;;;;5.60;2.17;;;20.00;47.30;;;;;;5053631;28;20227;-74
2022/04/20 09:00:29;;;;;;;1.80;1.60;;;20.10;46.50;;;;;;5053863;28;20212;-73
2022/04/20 09:03:00;;;;;;;3.20;1.70;;;20.20;46.10;;;;;;5056933;28;20183;-72
2022/04/20 09:05:35;;;;;;;3.83;1.93;;;20.20;46.20;;;;;;5053948;28;20179;-75
2022/04/20 09:08:11;;;;;;;4.40;1.80;;;20.10;45.80;;;;;;5042969;28;20186;-74
2022/04/20 09:10:39;;;;;;;3.63;1.90;;;20.00;46.10;;;;;;5046977;28;20183;-73
2022/04/20 09:13:08;;;;;;;2.33;1.70;;;19.90;46.50;;;;;;5053367;28;20271;-73
2022/04/20 09:15:37;;;;;;;2.77;1.57;;;19.90;45.80;;;;;;5052712;28;20292;-73
2022/04/20 09:18:07;;;;;;;4.63;2.10;;;20.00;44.80;;;;;;5040569;28;20219;-74
2022/04/20 09:20:35;;;;;;;3.33;1.70;;;20.00;44.00;;;;;;5051154;28;20176;-73
2022/04/20 09:23:12;;;;;;;2.27;1.70;;;20.00;44.60;;;;;;5052843;28;20176;-73
2022/04/20 09:25:46;;;;;;;3.90;2.70;;;19.90;45.10;;;;;;5051476;28;20254;-74
2022/04/20 09:28:13;;;;;;;2.33;2.00;;;19.80;45.90;;;;;;5052267;28;20179;-74
2022/04/20 09:30:43;;;;;;;3.53;2.47;;;19.80;46.10;;;;;;5052982;28;20176;-74
2022/04/20 09:33:11;;;;;;;6.20;2.53;;;19.80;46.30;;;;;;5065263;28;20183;-74
2022/04/20 09:35:49;;;;;;;4.60;2.63;;;19.60;45.90;;;;;;5062964;28;20673;-74
2022/04/20 09:38:21;;;;;;;3.80;2.50;;;19.60;45.80;;;;;;5053189;28;20826;-74
2022/04/20 09:40:49;;;;;;;5.40;2.00;;;19.50;44.80;;;;;;5052837;28;20194;-76
2022/04/20 09:43:19;;;;;;;3.53;1.60;;;19.50;44.20;;;;;;5052129;28;20655;-75
2022/04/20 09:48:50;;;;;;;2.40;1.60;;;19.50;43.60;;;;;;5052370;28;20251;-75
2022/04/20 09:49:07;;;;;;;2.60;1.50;;;19.40;43.20;;;;;;5043952;28;20234;-75
2022/04/20 09:51:42;;;;;;;3.00;1.57;;;19.40;42.20;;;;;;5051825;28;20571;-76
2022/04/20 09:54:29;;;;;;;2.47;1.77;;;19.40;41.80;;;;;;5050396;28;20188;-74
2022/04/20 09:57:24;;;;;;;2.00;1.10;;;19.40;40.80;;;;;;5039952;28;20253;-74
2022/04/20 09:59:59;;;;;;;1.33;1.07;;;19.30;41.60;;;;;;5052036;28;20542;-74
2022/04/20 10:02:30;;;;;;;2.33;1.90;;;19.30;40.80;;;;;;5047870;28;20179;-73
2022/04/20 10:04:58;;;;;;;6.00;1.93;;;19.30;41.20;;;;;;5050504;28;20204;-73
2022/04/20 10:07:25;;;;;;;3.50;1.80;;;19.30;41.70;;;;;;5052985;28;20692;-73
2022/04/20 10:09:53;;;;;;;2.40;1.50;;;19.10;43.80;;;;;;5052464;28;20176;-75
2022/04/20 10:12:21;;;;;;;1.50;1.13;;;18.90;43.10;;;;;;5051988;28;20183;-73
2022/04/20 10:17:45;;;;;;;3.43;2.20;;;18.80;43.40;;;;;;5051844;28;20210;-72
2022/04/20 10:20:14;;;;;;;2.33;1.47;;;18.80;44.30;;;;;;5052415;28;20168;-72
2022/04/20 10:22:43;;;;;;;4.13;1.43;;;18.70;43.80;;;;;;5052914;28;20230;-72
2022/04/20 10:25:12;;;;;;;2.03;1.37;;;18.80;43.50;;;;;;5051907;28;20186;-71
2022/04/20 10:28:07;;;;;;;3.00;1.40;;;18.80;43.60;;;;;;5052144;28;20183;-74
2022/04/20 10:31:00;;;;;;;2.03;1.20;;;18.70;43.80;;;;;;5052583;28;20179;-72
2022/04/20 10:33:33;;;;;;;1.93;1.13;;;18.70;43.10;;;;;;5064178;28;20190;-73
2022/04/20 10:36:03;;;;;;;1.80;1.00;;;18.70;42.60;;;;;;5072369;28;20168;-73
2022/04/20 10:38:32;;;;;;;1.30;1.10;;;18.70;42.70;;;;;;5072701;28;20211;-74
2022/04/20 10:40:59;;;;;;;3.83;1.13;;;18.60;43.10;;;;;;5058286;28;20263;-74
2022/04/20 10:43:28;;;;;;;4.03;1.23;;;18.60;42.60;;;;;;5051985;28;20192;-73
2022/04/20 10:46:16;;;;;;;2.00;1.03;;;18.60;42.60;;;;;;5051037;28;20179;-73
2022/04/20 10:48:51;;;;;;;1.50;0.97;;;18.60;41.90;;;;;;5052294;28;20175;-74
2022/04/20 10:51:25;;;;;;;1.13;0.80;;;18.60;42.20;;;;;;5051953;28;20540;-73
2022/04/20 10:53:53;;;;;;;4.37;1.00;;;18.60;41.90;;;;;;5051881;28;20184;-73
2022/04/20 10:56:22;;;;;;;2.17;0.90;;;18.50;41.80;;;;;;5049024;28;20184;-74
2022/04/20 10:59:13;;;;;;;2.70;1.00;;;18.60;41.90;;;;;;5052571;28;20188;-72
2022/04/20 11:02:06;;;;;;;3.63;1.63;;;18.50;42.60;;;;;;5041823;28;20229;-71
2022/04/20 11:04:36;;;;;;;11.57;5.53;;;18.30;43.30;;;;;;5052238;28;20676;-73
2022/04/20 11:07:04;;;;;;;70.73;33.17;;;18.20;44.10;;;;;;5052543;28;20176;-72
2022/04/20 11:09:47;;;;;;;7.27;3.47;;;18.10;44.60;;;;;;5050559;28;20175;-73
2022/04/20 11:21:06;;;;;;;1.40;0.97;;;17.70;46.40;;;;;;5050911;28;20203;-72
2022/04/20 11:24:08;;;;;;;2.57;1.20;;;17.50;47.40;;;;;;5051678;28;20187;-73
2022/04/20 11:26:49;;;;;;;1.87;1.03;;;17.50;47.90;;;;;;5032188;28;20635;-72
2022/04/20 11:29:24;;;;;;;2.30;1.20;;;17.40;47.90;;;;;;5043023;28;20187;-73
2022/04/20 11:32:03;;;;;;;2.37;1.10;;;17.30;47.60;;;;;;5054134;28;20169;-73
2022/04/20 11:34:35;;;;;;;1.17;0.90;;;17.40;47.20;;;;;;5055056;28;20214;-75
2022/04/20 11:37:06;;;;;;;0.97;0.87;;;17.40;46.30;;;;;;5053960;28;20218;-74
2022/04/20 11:39:34;;;;;;;1.50;0.73;;;17.50;46.30;;;;;;5053143;28;20249;-73
2022/04/20 11:42:04;;;;;;;2.00;1.00;;;17.60;46.50;;;;;;5048676;28;20223;-74
2022/04/20 11:44:32;;;;;;;1.07;0.80;;;17.60;45.40;;;;;;5055462;28;20194;-73
2022/04/20 11:47:05;;;;;;;1.60;0.90;;;17.60;45.30;;;;;;5055816;28;20180;-74
2022/04/20 11:49:39;;;;;;;1.00;0.90;;;17.60;45.20;;;;;;5054160;28;20211;-73
2022/04/20 11:52:11;;;;;;;1.80;0.90;;;17.60;45.50;;;;;;5054177;28;20187;-72
2022/04/20 11:54:40;;;;;;;1.17;0.90;;;17.60;44.60;;;;;;5051651;28;20236;-73
2022/04/20 11:57:10;;;;;;;3.03;1.00;;;17.60;45.50;;;;;;5051462;28;20226;-73
2022/04/20 11:59:48;;;;;;;1.73;1.03;;;17.60;45.50;;;;;;5044981;28;20189;-75
2022/04/20 12:02:18;;;;;;;1.27;0.80;;;17.60;45.50;;;;;;5046975;28;20183;-73
2022/04/20 12:04:47;;;;;;;1.30;0.97;;;17.50;44.90;;;;;;5052773;28;20191;-73
2022/04/20 12:07:15;;;;;;;1.53;0.80;;;17.50;45.20;;;;;;5052933;28;20183;-73
2022/04/20 12:09:47;;;;;;;0.60;0.60;;;17.50;46.10;;;;;;5052082;28;20240;-73
2022/04/20 12:12:17;;;;;;;0.80;0.80;;;17.40;46.60;;;;;;5054822;28;20635;-73
2022/04/20 12:14:46;;;;;;;1.50;0.77;;;17.30;46.00;;;;;;5051916;28;20224;-73
2022/04/20 12:17:22;;;;;;;0.70;0.70;;;17.30;46.60;;;;;;5053846;28;20261;-73
2022/04/20 12:19:53;;;;;;;1.37;1.00;;;17.20;47.20;;;;;;5052562;28;20176;-72
2022/04/20 12:22:23;;;;;;;1.77;0.90;;;17.20;47.30;;;;;;5052983;28;20237;-72
2022/04/20 12:25:10;;;;;;;1.33;0.90;;;17.10;48.00;;;;;;5053126;28;20172;-73
2022/04/20 12:27:57;;;;;;;2.93;0.87;;;17.10;48.00;;;;;;5054199;28;20334;-72
2022/04/20 12:30:38;;;;;;;3.73;0.90;;;17.00;48.50;;;;;;5054660;28;20258;-73
2022/04/20 12:33:08;;;;;;;2.00;1.00;;;16.90;49.00;;;;;;5067410;28;20247;-72
2022/04/20 12:35:35;;;;;;;3.10;0.93;;;16.80;49.50;;;;;;5074644;28;20254;-72
2022/04/20 12:38:07;;;;;;;1.57;1.07;;;16.80;50.30;;;;;;5066920;28;20214;-72
2022/04/20 12:40:36;;;;;;;1.90;0.93;;;16.70;51.20;;;;;;5053186;28;20191;-72
2022/04/20 12:43:05;;;;;;;1.97;1.03;;;16.60;51.90;;;;;;5054451;28;20242;-72
2022/04/20 12:45:36;;;;;;;3.53;0.90;;;16.50;52.50;;;;;;5054697;28;20230;-74
2022/04/20 12:48:11;;;;;;;1.50;1.00;;;16.30;53.00;;;;;;5054225;28;20172;-72
2022/04/20 12:50:46;;;;;;;0.80;0.70;;;16.30;53.70;;;;;;5054441;28;20572;-72
2022/04/20 12:53:13;;;;;;;1.97;1.07;;;16.20;53.70;;;;;;5054182;28;20172;-72
2022/04/20 13:04:24;;;;;;;1.77;1.30;;;16.10;54.20;;;;;;5074192;28;20194;-72
2022/04/20 13:06:52;;;;;;;1.23;1.00;;;16.20;54.60;;;;;;5069293;28;20188;-72
2022/04/20 13:09:19;;;;;;;2.17;1.60;;;16.10;54.40;;;;;;5054102;28;20263;-72
2022/04/20 13:11:47;;;;;;;1.33;1.00;;;16.10;54.70;;;;;;5033844;28;20182;-72
2022/04/20 13:14:14;;;;;;;1.93;1.13;;;16.00;55.20;;;;;;5051862;28;20237;-72
2022/04/20 13:16:42;;;;;;;2.40;1.10;;;15.90;56.50;;;;;;5044642;28;20200;-72
2022/04/20 13:19:09;;;;;;;1.97;1.10;;;15.80;56.60;;;;;;5053970;28;20581;-72
2022/04/20 13:21:41;;;;;;;2.17;1.20;;;15.80;56.70;;;;;;5053851;28;20708;-72
2022/04/20 13:24:09;;;;;;;1.97;1.10;;;15.80;56.10;;;;;;5053806;28;20223;-72
2022/04/20 13:29:22;;;;;;;2.10;1.03;;;15.70;56.10;;;;;;5053800;28;20224;-72
2022/04/20 13:31:50;;;;;;;1.30;1.00;;;15.70;56.80;;;;;;5052880;28;20175;-72
2022/04/20 13:34:17;;;;;;;1.33;0.93;;;15.60;56.70;;;;;;5073720;28;20177;-72
2022/04/20 13:36:44;;;;;;;5.17;1.80;;;15.60;57.60;;;;;;5061169;28;20224;-72
2022/04/20 13:39:12;;;;;;;3.50;1.20;;;15.60;56.30;;;;;;5053532;28;20172;-72